Marchicora — V2OQ7 — position and weather

sailwx.info

Track history (hours):
 
Tides and Currents Weather Stations Pressure Air Temp Water Temp Dewpoint Dewpoint Depression Visibility Wind Speed Wind Dir Waves Ship Positions

Marchicora

Last reported at 2016-Jul-29 06:20 UTC. Time now 2016-Jul-30 09:13 UTC.
Position N 49°23' W 004°30'.

Length 153 m; draft 10.1 m.

Type: Cargo ship. MMSI: 304653000.

Date/timePositionNaut miles runAvg speedWind from/ knotsBaromVisibWave heightAir tempDewpointWater temp
2016-Jul-29 06:20N 49°23' W 004°30'1112.9
2016-Jul-29 05:30N 49°28' W 004°15'1212.7
2016-Jul-29 04:33N 49°34' W 003°59'1212.2
2016-Jul-29 03:34N 49°40' W 003°43'1211.6
2016-Jul-29 02:33N 49°46' W 003°28'1111.3
2016-Jul-29 01:34N 49°52' W 003°13'1211.5
2016-Jul-29 00:34N 49°58' W 002°57'1212.0
2016-Jul-28 23:34N 50°01' W 002°40'1813.3
2016-Jul-28 22:14N 50°06' W 002°13'5414.2
2016-Jul-28 18:25N 50°21' W 000°52'1012.0
2016-Jul-28 17:33N 50°24' W 000°36'1111.5
2016-Jul-28 16:33N 50°28' W 000°19'1111.0
2016-Jul-28 15:33N 50°31' W 000°02'1110.7
2016-Jul-28 14:33N 50°34' E 000°14'1211.3
2016-Jul-28 13:31N 50°37' E 000°32'1712.5
2016-Jul-28 12:09N 50°47' E 000°54'813.3
2016-Jul-28 11:33N 50°51' E 001°04'1313.4
2016-Jul-28 10:33N 51°00' E 001°20'1312.6
2016-Jul-28 09:33N 51°08' E 001°35'1211.6
2016-Jul-28 08:33N 51°17' E 001°48'1111.3
2016-Jul-28 07:33N 51°27' E 001°55'1211.6
2016-Jul-28 06:33N 51°36' E 002°07'1212.0
2016-Jul-28 05:33N 51°45' E 002°21'1912.6
2016-Jul-28 04:05N 52°00' E 002°37'3814.1
2016-Jul-28 01:22N 52°36' E 002°60'1413.4
2016-Jul-28 00:18N 52°48' E 003°11'1012.7
2016-Jul-27 23:33N 52°57' E 003°17'1212.2
2016-Jul-27 22:33N 53°09' E 003°23'1211.8
2016-Jul-27 21:33N 53°20' E 003°29'35811.5
2016-Jul-26 14:22N 57°51' E 010°23'911.1
2016-Jul-26 13:33N 57°51' E 010°40'1211.9
2016-Jul-26 12:33N 57°45' E 010°59'1312.6
2016-Jul-26 11:33N 57°39' E 011°21'1111.3
2016-Jul-26 10:33N 57°36' E 011°41'0 0.3
2016-Jul-26 09:33N 57°36' E 011°41'0 0.0
2016-Jul-26 08:32N 57°36' E 011°41'0 0.0
2016-Jul-26 07:32N 57°36' E 011°41'0 0.0
2016-Jul-26 06:32N 57°36' E 011°41'0 0.0
2016-Jul-26 05:32N 57°36' E 011°41'4 3.7
2016-Jul-26 04:33N 57°32' E 011°38'1313.2
2016-Jul-26 03:34N 57°19' E 011°40'1313.2
2016-Jul-26 02:33N 57°06' E 011°40'1312.8
2016-Jul-26 01:33N 56°54' E 011°48'1111.4
2016-Jul-26 00:33N 56°43' E 011°52'1313.2
2016-Jul-25 23:33N 56°31' E 011°40'1413.4
2016-Jul-25 22:31N 56°20' E 011°27'6112.3
2016-Jul-25 17:33N 55°20' E 011°02'1111.0
2016-Jul-25 16:33N 55°09' E 011°03'1313.0
2016-Jul-25 15:33N 54°57' E 010°57'1212.1
2016-Jul-25 14:33N 54°45' E 010°53'1312.7
2016-Jul-25 13:34N 54°36' E 011°09'1414.5
2016-Jul-25 12:33N 54°30' E 011°31'1413.5
2016-Jul-25 11:33N 54°26' E 011°54'1211.6
2016-Jul-25 10:33N 54°30' E 012°13'1312.7
2016-Jul-25 09:33N 54°40' E 012°25'1312.7
2016-Jul-25 08:33N 54°47' E 012°44'1312.7
2016-Jul-25 07:33N 54°51' E 013°05'1313.1
2016-Jul-25 06:33N 54°56' E 013°26'1313.2
2016-Jul-25 05:33N 55°00' E 013°48'1312.6
2016-Jul-25 04:33N 55°06' E 014°07'1312.7
2016-Jul-25 03:33N 55°16' E 014°21'1312.8
2016-Jul-25 02:33N 55°26' E 014°35'1312.9
2016-Jul-25 01:33N 55°33' E 014°55'1313.0
2016-Jul-25 00:33N 55°39' E 015°15'2912.7
2016-Jul-24 22:18N 55°54' E 015°59'1112.9
2016-Jul-24 21:29N 55°59' E 016°15'12812.3
2016-Jul-24 11:07N 57°51' E 018°08'713.2
2016-Jul-24 10:33N 57°57' E 018°16'1413.1
2016-Jul-24 09:29N 58°09' E 018°30'2412.5
2016-Jul-24 07:33N 58°30' E 018°53'1312.5
2016-Jul-24 06:30N 58°42' E 019°06'1212.6
2016-Jul-24 05:33N 58°52' E 019°18'1412.7
2016-Jul-24 04:29N 59°03' E 019°31'  
Track history (hours):
 
Tides and Currents Weather Stations Pressure Air Temp Water Temp Dewpoint Dewpoint Depression Visibility Wind Speed Wind Dir Waves Ship Positions

Marchicora

Last reported at 2016-Jul-29 06:20 UTC. Time now 2016-Jul-30 09:13 UTC.
Position N 49°23' W 004°30'.

Length 153 m; draft 10.1 m.

Type: Cargo ship. MMSI: 304653000.

Date/timePositionNaut miles runAvg speedWind from/ knotsBaromVisibWave heightAir tempDewpointWater temp
2016-Jul-29 06:20N 49°23' W 004°30'1112.9
2016-Jul-29 05:30N 49°28' W 004°15'1212.7
2016-Jul-29 04:33N 49°34' W 003°59'1212.2
2016-Jul-29 03:34N 49°40' W 003°43'1211.6
2016-Jul-29 02:33N 49°46' W 003°28'1111.3
2016-Jul-29 01:34N 49°52' W 003°13'1211.5
2016-Jul-29 00:34N 49°58' W 002°57'1212.0
2016-Jul-28 23:34N 50°01' W 002°40'1813.3
2016-Jul-28 22:14N 50°06' W 002°13'5414.2
2016-Jul-28 18:25N 50°21' W 000°52'1012.0
2016-Jul-28 17:33N 50°24' W 000°36'1111.5
2016-Jul-28 16:33N 50°28' W 000°19'1111.0
2016-Jul-28 15:33N 50°31' W 000°02'1110.7
2016-Jul-28 14:33N 50°34' E 000°14'1211.3
2016-Jul-28 13:31N 50°37' E 000°32'1712.5
2016-Jul-28 12:09N 50°47' E 000°54'813.3
2016-Jul-28 11:33N 50°51' E 001°04'1313.4
2016-Jul-28 10:33N 51°00' E 001°20'1312.6
2016-Jul-28 09:33N 51°08' E 001°35'1211.6
2016-Jul-28 08:33N 51°17' E 001°48'1111.3
2016-Jul-28 07:33N 51°27' E 001°55'1211.6
2016-Jul-28 06:33N 51°36' E 002°07'1212.0
2016-Jul-28 05:33N 51°45' E 002°21'1912.6
2016-Jul-28 04:05N 52°00' E 002°37'3814.1
2016-Jul-28 01:22N 52°36' E 002°60'1413.4
2016-Jul-28 00:18N 52°48' E 003°11'1012.7
2016-Jul-27 23:33N 52°57' E 003°17'1212.2
2016-Jul-27 22:33N 53°09' E 003°23'1211.8
2016-Jul-27 21:33N 53°20' E 003°29'35811.5
2016-Jul-26 14:22N 57°51' E 010°23'911.1
2016-Jul-26 13:33N 57°51' E 010°40'1211.9
2016-Jul-26 12:33N 57°45' E 010°59'1312.6
2016-Jul-26 11:33N 57°39' E 011°21'1111.3
2016-Jul-26 10:33N 57°36' E 011°41'0 0.3
2016-Jul-26 09:33N 57°36' E 011°41'0 0.0
2016-Jul-26 08:32N 57°36' E 011°41'0 0.0
2016-Jul-26 07:32N 57°36' E 011°41'0 0.0
2016-Jul-26 06:32N 57°36' E 011°41'0 0.0
2016-Jul-26 05:32N 57°36' E 011°41'4 3.7
2016-Jul-26 04:33N 57°32' E 011°38'1313.2
2016-Jul-26 03:34N 57°19' E 011°40'1313.2
2016-Jul-26 02:33N 57°06' E 011°40'1312.8
2016-Jul-26 01:33N 56°54' E 011°48'1111.4
2016-Jul-26 00:33N 56°43' E 011°52'1313.2
2016-Jul-25 23:33N 56°31' E 011°40'1413.4
2016-Jul-25 22:31N 56°20' E 011°27'6112.3
2016-Jul-25 17:33N 55°20' E 011°02'1111.0
2016-Jul-25 16:33N 55°09' E 011°03'1313.0
2016-Jul-25 15:33N 54°57' E 010°57'1212.1
2016-Jul-25 14:33N 54°45' E 010°53'1312.7
2016-Jul-25 13:34N 54°36' E 011°09'1414.5
2016-Jul-25 12:33N 54°30' E 011°31'1413.5
2016-Jul-25 11:33N 54°26' E 011°54'1211.6
2016-Jul-25 10:33N 54°30' E 012°13'1312.7
2016-Jul-25 09:33N 54°40' E 012°25'1312.7
2016-Jul-25 08:33N 54°47' E 012°44'1312.7
2016-Jul-25 07:33N 54°51' E 013°05'1313.1
2016-Jul-25 06:33N 54°56' E 013°26'1313.2
2016-Jul-25 05:33N 55°00' E 013°48'1312.6
2016-Jul-25 04:33N 55°06' E 014°07'1312.7
2016-Jul-25 03:33N 55°16' E 014°21'1312.8
2016-Jul-25 02:33N 55°26' E 014°35'1312.9
2016-Jul-25 01:33N 55°33' E 014°55'1313.0
2016-Jul-25 00:33N 55°39' E 015°15'2912.7
2016-Jul-24 22:18N 55°54' E 015°59'1112.9
2016-Jul-24 21:29N 55°59' E 016°15'12812.3
2016-Jul-24 11:07N 57°51' E 018°08'713.2
2016-Jul-24 10:33N 57°57' E 018°16'1413.1
2016-Jul-24 09:29N 58°09' E 018°30'2412.5
2016-Jul-24 07:33N 58°30' E 018°53'1312.5
2016-Jul-24 06:30N 58°42' E 019°06'1212.6
2016-Jul-24 05:33N 58°52' E 019°18'1412.7
2016-Jul-24 04:29N 59°03' E 019°31'  

Dump ship's entire track history